Time;durP1;ratioP1;P1;durP2;ratioP2;P2;SDS_P1;SDS_P2;PMS_P1;PMS_P2;Temp;Humidity;BMP_temperature;BMP_pressure;BME280_temperature;BME280_humidity;BME280_pressure;Samples;Min_cycle;Max_cycle;Signal;HPM_P1;HPM_P2
2023/05/22 00:00:43;;;;;;;;;;;19.00;54.10;;;14.94;94.25;95211.00;5012900;28;19913;-45
2023/05/22 00:03:09;;;;;;;;;;;18.90;54.10;;;14.87;94.66;95216.78;5011873;28;20329;-45
2023/05/22 00:05:39;;;;;;;;;;;18.80;54.10;;;14.80;95.71;95203.00;5013325;28;19912;-45
2023/05/22 00:08:10;;;;;;;;;;;18.80;54.20;;;14.76;97.73;95210.84;5011847;28;19920;-45
2023/05/22 00:10:37;;;;;;;;;;;18.80;55.00;;;14.78;97.42;95210.53;5012616;28;19944;-45
2023/05/22 00:13:03;;;;;;;;;;;18.70;54.50;;;14.78;98.24;95210.53;5012600;28;19916;-50
2023/05/22 00:15:30;;;;;;;;;;;18.70;54.70;;;14.80;97.78;95217.19;5012437;28;20333;-47
2023/05/22 00:17:56;;;;;;;;;;;18.70;54.90;;;14.79;98.27;95214.78;5012891;28;20335;-49
2023/05/22 00:20:22;;;;;;;;;;;18.70;55.00;;;14.79;98.30;95214.78;5011866;28;19959;-47
2023/05/22 00:22:49;;;;;;;;;;;18.70;55.00;;;14.78;98.27;95215.88;5012251;28;20390;-49
2023/05/22 00:25:19;;;;;;;;;;;18.70;55.10;;;14.71;97.58;95218.97;5011409;28;19913;-50
2023/05/22 00:27:46;;;;;;;;;;;18.60;55.10;;;14.67;98.56;95217.22;5012968;28;20545;-47
2023/05/22 00:30:13;;;;;;;;;;;18.60;55.20;;;14.61;97.58;95218.41;5012763;28;19917;-50
2023/05/22 00:32:39;;;;;;;;;;;18.60;55.20;;;14.48;98.78;95219.97;5011621;28;19963;-50
2023/05/22 00:35:06;;;;;;;;;;;18.50;55.10;;;14.37;98.16;95222.03;5013345;28;20007;-50
2023/05/22 00:37:31;;;;;;;;;;;18.40;55.10;;;14.20;99.91;95222.63;5008065;28;19918;-52
2023/05/22 00:39:57;;;;;;;;;;;18.40;55.20;;;14.01;100.00;95225.34;5004919;28;19912;-50
2023/05/22 00:42:23;;;;;;;;;;;18.20;55.10;;;13.90;100.00;95221.25;5012149;28;19966;-48
2023/05/22 00:44:49;;;;;;;;;;;18.20;55.20;;;13.81;100.00;95218.44;5009984;28;19909;-49
2023/05/22 00:47:15;;;;;;;;;;;18.10;55.30;;;13.71;100.00;95221.31;5012545;28;19920;-48
2023/05/22 00:49:42;;;;;;;;;;;17.90;55.30;;;13.59;100.00;95220.97;5011354;28;19944;-51
2023/05/22 00:52:10;;;;;;;;;;;17.80;55.40;;;13.47;100.00;95234.00;5012025;28;19931;-47
2023/05/22 00:54:37;;;;;;;;;;;17.70;55.50;;;13.35;100.00;95221.88;5010896;28;20311;-51
2023/05/22 00:57:04;;;;;;;;;;;17.60;55.60;;;13.24;100.00;95227.63;5015449;28;20417;-49
2023/05/22 00:59:30;;;;;;;;;;;17.50;55.80;;;13.17;100.00;95225.31;5012075;28;20083;-46
2023/05/22 01:01:57;;;;;;;;;;;17.40;55.90;;;13.06;100.00;95231.88;5010497;28;19948;-48
2023/05/22 01:04:24;;;;;;;;;;;17.30;56.00;;;12.87;100.00;95226.50;5011261;28;19916;-50
2023/05/22 01:06:50;;;;;;;;;;;17.20;56.10;;;12.86;100.00;95225.72;5010847;28;19909;-50
2023/05/22 01:09:16;;;;;;;;;;;17.10;56.20;;;12.80;100.00;95228.75;5011398;28;19931;-53
2023/05/22 01:11:54;;;;;;;;;;;17.00;56.40;;;12.70;100.00;95230.47;5012001;28;19916;-49
2023/05/22 01:15:03;;;;;;;;;;;16.90;56.50;;;12.64;100.00;95223.59;5003397;28;19920;-47
2023/05/22 01:17:46;;;;;;;;;;;16.80;56.60;;;12.57;100.00;95223.16;5008048;28;20079;-47
2023/05/22 01:20:37;;;;;;;;;;;16.70;56.80;;;12.50;100.00;95228.84;5001282;28;19914;-49
2023/05/22 01:23:40;;;;;;;;;;;16.70;57.00;;;12.43;100.00;95222.22;5010822;28;19955;-46
2023/05/22 01:26:59;;;;;;;;;;;16.60;57.10;;;12.42;100.00;95221.44;5011048;28;19941;-49
2023/05/22 01:29:59;;;;;;;;;;;16.50;57.20;;;12.35;100.00;95226.34;5009852;28;19920;-47
2023/05/22 01:32:28;;;;;;;;;;;16.50;57.40;;;12.33;100.00;95227.69;5010704;28;19928;-47
2023/05/22 01:35:00;;;;;;;;;;;16.40;57.50;;;12.29;100.00;95235.47;5025588;28;19909;-47
2023/05/22 01:37:27;;;;;;;;;;;16.40;57.70;;;12.23;100.00;95228.59;5028674;28;20119;-48
2023/05/22 01:39:54;;;;;;;;;;;16.40;57.70;;;12.23;100.00;95229.41;5015584;28;19916;-47
2023/05/22 01:42:21;;;;;;;;;;;16.30;57.80;;;12.25;100.00;95229.09;5010689;28;20043;-50
2023/05/22 01:44:49;;;;;;;;;;;16.30;57.90;;;12.23;100.00;95233.94;5007145;28;19909;-47
2023/05/22 01:47:16;;;;;;;;;;;16.30;58.00;;;12.18;100.00;95237.44;5015703;28;20286;-47
2023/05/22 01:49:44;;;;;;;;;;;16.30;58.00;;;12.15;100.00;95235.34;5014933;28;19979;-47
2023/05/22 01:52:40;;;;;;;;;;;16.30;58.70;;;12.08;100.00;95239.44;5006345;28;19913;-47
2023/05/22 01:55:16;;;;;;;;;;;16.30;58.20;;;12.02;100.00;95228.78;5015370;28;19917;-51
2023/05/22 01:58:35;;;;;;;;;;;16.20;58.30;;;12.14;100.00;95231.09;5007236;28;19909;-46
2023/05/22 02:01:02;;;;;;;;;;;16.20;58.40;;;12.16;100.00;95234.28;5005994;28;20367;-49
2023/05/22 02:03:34;;;;;;;;;;;16.20;58.50;;;12.12;100.00;95222.56;5014394;28;19998;-47
2023/05/22 02:06:06;;;;;;;;;;;16.20;58.60;;;12.05;100.00;95227.44;5015399;28;19909;-47
2023/05/22 02:08:37;;;;;;;;;;;16.20;58.60;;;12.01;100.00;95224.53;5014544;28;19909;-47
2023/05/22 02:11:05;;;;;;;;;;;16.10;58.60;;;11.99;100.00;95231.22;5015461;28;19956;-49
2023/05/22 02:13:32;;;;;;;;;;;16.10;58.60;;;11.97;100.00;95220.84;5014729;28;19948;-51
2023/05/22 02:16:00;;;;;;;;;;;16.10;58.70;;;11.98;100.00;95225.09;5012113;28;19966;-46
2023/05/22 02:18:29;;;;;;;;;;;16.10;58.70;;;11.94;100.00;95232.09;5014935;28;20279;-48
2023/05/22 02:20:57;;;;;;;;;;;16.10;58.80;;;11.97;100.00;95230.72;5004506;28;20058;-48
2023/05/22 02:23:23;;;;;;;;;;;16.10;58.80;;;11.98;100.00;95233.09;5015113;28;19909;-47
2023/05/22 02:25:49;;;;;;;;;;;16.10;58.90;;;11.90;100.00;95228.38;5009044;28;19909;-46
2023/05/22 02:28:15;;;;;;;;;;;16.00;59.00;;;11.90;100.00;95230.25;5018395;28;20364;-47
2023/05/22 02:30:41;;;;;;;;;;;16.00;59.00;;;11.78;100.00;95227.91;5026552;28;20402;-47
2023/05/22 02:33:08;;;;;;;;;;;16.00;59.00;;;11.75;100.00;95215.94;5023615;23;19925;-52
2023/05/22 02:35:34;;;;;;;;;;;16.00;59.10;;;11.82;100.00;95221.75;5014046;28;20393;-51
2023/05/22 02:38:01;;;;;;;;;;;16.00;59.10;;;11.80;100.00;95215.88;5013704;28;19954;-51
2023/05/22 02:40:27;;;;;;;;;;;15.90;59.10;;;11.77;100.00;95221.78;5013432;28;19913;-51
2023/05/22 02:42:52;;;;;;;;;;;15.90;59.20;;;11.79;100.00;95218.84;5014167;28;19913;-49
2023/05/22 02:45:18;;;;;;;;;;;15.90;59.30;;;11.76;100.00;95224.75;5013846;28;19909;-50
2023/05/22 02:47:44;;;;;;;;;;;15.90;59.30;;;11.73;100.00;95226.09;5000752;28;19913;-48
2023/05/22 02:50:10;;;;;;;;;;;15.90;59.40;;;11.73;100.00;95226.09;5013259;28;19909;-49
2023/05/22 02:52:38;;;;;;;;;;;15.80;59.40;;;11.64;100.00;95222.44;5009602;28;19909;-54
2023/05/22 02:55:04;;;;;;;;;;;15.80;59.40;;;11.67;100.00;95232.56;5006672;28;19916;-52
2023/05/22 02:57:30;;;;;;;;;;;15.80;59.50;;;11.62;100.00;95227.25;4999162;28;20375;-51
2023/05/22 02:59:56;;;;;;;;;;;15.80;59.60;;;11.60;100.00;95221.41;5014585;28;20006;-54
2023/05/22 03:02:27;;;;;;;;;;;15.70;59.50;;;11.55;100.00;95224.09;5012846;28;19992;-53
2023/05/22 03:04:53;;;;;;;;;;;15.70;59.60;;;11.52;100.00;95224.66;5014510;28;19916;-50
2023/05/22 03:07:20;;;;;;;;;;;15.70;59.60;;;11.45;100.00;95226.84;5003688;28;19916;-48
2023/05/22 03:09:46;;;;;;;;;;;15.70;59.70;;;11.44;100.00;95226.06;5014295;28;19909;-49
2023/05/22 03:12:12;;;;;;;;;;;15.60;60.00;;;11.41;100.00;95225.84;4994920;28;19918;-47
2023/05/22 03:14:38;;;;;;;;;;;15.60;59.80;;;11.33;100.00;95222.66;4994424;28;19913;-53
2023/05/22 03:17:04;;;;;;;;;;;15.60;59.80;;;11.34;100.00;95218.94;5007812;28;19959;-52
2023/05/22 03:19:30;;;;;;;;;;;15.50;59.80;;;11.35;100.00;95219.72;5006654;28;19920;-51
2023/05/22 03:21:56;;;;;;;;;;;15.50;59.90;;;11.40;100.00;95226.88;5007152;28;19917;-52
2023/05/22 03:24:22;;;;;;;;;;;15.50;60.00;;;11.43;100.00;95223.66;5001095;28;19910;-48
2023/05/22 03:26:47;;;;;;;;;;;15.50;60.00;;;11.46;100.00;95223.13;5006151;28;19920;-48
2023/05/22 03:29:13;;;;;;;;;;;15.50;60.20;;;11.53;100.00;95218.25;5001368;28;19909;-49
2023/05/22 03:31:39;;;;;;;;;;;15.50;60.30;;;11.53;100.00;95218.25;5009684;28;19915;-50
2023/05/22 03:34:06;;;;;;;;;;;15.50;60.30;;;11.50;100.00;95213.47;5005584;28;19940;-52
2023/05/22 03:36:35;;;;;;;;;;;15.60;60.40;;;11.44;100.00;95219.91;5023064;28;19909;-51
2023/05/22 03:39:02;;;;;;;;;;;15.50;60.30;;;11.39;100.00;95217.31;5007506;28;19940;-53
2023/05/22 03:41:28;;;;;;;;;;;15.50;60.30;;;11.36;100.00;95218.66;5003952;28;20234;-50
2023/05/22 03:43:54;;;;;;;;;;;15.50;61.10;;;11.28;100.00;95219.22;4999997;28;19952;-52
2023/05/22 03:46:20;;;;;;;;;;;15.50;60.30;;;11.26;100.00;95216.06;5006086;28;19913;-52
2023/05/22 03:48:45;;;;;;;;;;;15.50;60.40;;;11.28;100.00;95225.38;4993912;28;19909;-54
2023/05/22 03:51:11;;;;;;;;;;;15.50;60.40;;;11.23;100.00;95220.06;5009417;28;19909;-48
2023/05/22 03:53:37;;;;;;;;;;;15.50;60.40;;;11.22;100.00;95221.16;4999067;28;19910;-47
2023/05/22 03:56:03;;;;;;;;;;;15.40;60.50;;;11.15;100.00;95219.84;5000361;28;20386;-49
2023/05/22 03:58:29;;;;;;;;;;;15.40;60.50;;;11.10;100.00;95220.69;5000031;28;19913;-54
2023/05/22 04:00:59;;;;;;;;;;;15.40;60.60;;;11.11;100.00;95224.94;5005870;28;20007;-53
2023/05/22 04:03:28;;;;;;;;;;;15.40;60.60;;;11.18;100.00;95229.97;4994864;28;26693;-53
2023/05/22 04:05:55;;;;;;;;;;;15.40;60.70;;;11.18;100.00;95227.31;4993752;28;20000;-54
2023/05/22 04:08:21;;;;;;;;;;;15.40;60.70;;;11.16;100.00;95230.25;5005223;28;19913;-55
2023/05/22 04:10:47;;;;;;;;;;;15.40;60.80;;;11.18;100.00;95236.09;4993718;28;19910;-53
2023/05/22 04:13:15;;;;;;;;;;;15.40;60.80;;;11.17;100.00;95239.84;5007520;28;19944;-51
2023/05/22 04:15:44;;;;;;;;;;;15.40;60.80;;;11.16;100.00;95240.91;5001879;28;19909;-48
2023/05/22 04:18:10;;;;;;;;;;;15.40;60.80;;;11.23;100.00;95246.72;5012986;28;20004;-53
2023/05/22 04:20:37;;;;;;;;;;;15.40;61.00;;;11.28;100.00;95246.72;5011365;28;19913;-49
2023/05/22 04:23:03;;;;;;;;;;;15.50;61.20;;;11.34;100.00;95247.44;4999631;28;19959;-50
2023/05/22 04:25:30;;;;;;;;;;;15.60;61.30;;;11.37;100.00;95248.78;5009896;28;21230;-51
2023/05/22 04:27:58;;;;;;;;;;;15.70;61.30;;;11.41;100.00;95252.50;4996023;28;19990;-47
2023/05/22 04:30:24;;;;;;;;;;;15.70;61.30;;;11.45;100.00;95253.53;5003371;28;19936;-47
2023/05/22 04:32:50;;;;;;;;;;;15.80;61.30;;;11.57;100.00;95261.97;5001759;28;19925;-47
2023/05/22 04:35:17;;;;;;;;;;;15.80;61.20;;;11.76;100.00;95265.56;5005574;28;19939;-48
2023/05/22 04:37:44;;;;;;;;;;;15.90;61.30;;;11.99;100.00;95272.06;4997684;28;20004;-48
2023/05/22 04:40:13;;;;;;;;;;;16.00;61.20;;;12.16;100.00;95269.00;5012968;28;19935;-49
2023/05/22 04:42:41;;;;;;;;;;;16.20;61.40;;;12.31;100.00;95276.03;4993508;28;19913;-49
2023/05/22 04:45:08;;;;;;;;;;;16.30;61.30;;;12.49;100.00;95277.19;5008062;28;20008;-50
2023/05/22 04:47:37;;;;;;;;;;;16.40;61.30;;;12.65;100.00;95278.63;5012490;28;19933;-50
2023/05/22 04:50:03;;;;;;;;;;;16.60;61.30;;;12.85;100.00;95279.44;5005227;28;19909;-50
2023/05/22 04:52:29;;;;;;;;;;;16.70;61.20;;;13.04;100.00;95285.66;5005392;28;20012;-52
2023/05/22 04:54:54;;;;;;;;;;;16.90;61.10;;;13.13;100.00;95283.09;5005961;28;19996;-52
2023/05/22 04:57:24;;;;;;;;;;;17.10;61.00;;;13.17;100.00;95284.94;5003198;28;19910;-52
2023/05/22 04:59:50;;;;;;;;;;;17.30;60.90;;;13.36;100.00;95282.31;5005842;28;19997;-55
2023/05/22 05:02:16;;;;;;;;;;;17.50;60.70;;;13.50;100.00;95282.38;5000563;28;19916;-51
2023/05/22 05:04:42;;;;;;;;;;;17.70;60.60;;;13.51;100.00;95283.97;4999094;28;19982;-50
2023/05/22 05:07:08;;;;;;;;;;;17.80;60.40;;;13.54;100.00;95287.97;5012403;28;19951;-49
2023/05/22 05:09:34;;;;;;;;;;;17.80;60.20;;;13.57;100.00;95282.81;5010965;28;19916;-53
2023/05/22 05:12:00;;;;;;;;;;;17.90;60.20;;;13.75;100.00;95280.41;5006991;28;20368;-50
2023/05/22 05:14:25;;;;;;;;;;;18.10;60.10;;;13.92;100.00;95286.03;5004617;28;19952;-53
2023/05/22 05:16:51;;;;;;;;;;;18.30;60.10;;;14.04;100.00;95277.50;5010961;28;19913;-50
2023/05/22 05:19:21;;;;;;;;;;;18.40;60.00;;;14.11;100.00;95284.09;5010747;28;19909;-47
2023/05/22 05:21:48;;;;;;;;;;;18.50;59.90;;;14.15;100.00;95278.94;4994426;28;20027;-53
2023/05/22 05:24:16;;;;;;;;;;;18.60;59.80;;;14.19;100.00;95287.19;4993087;28;20285;-48
2023/05/22 05:26:42;;;;;;;;;;;18.70;59.70;;;14.28;100.00;95285.41;5011476;28;19909;-49
2023/05/22 05:29:08;;;;;;;;;;;18.80;59.60;;;14.33;100.00;95293.38;5011752;28;19909;-48
2023/05/22 05:31:34;;;;;;;;;;;18.90;59.50;;;14.34;100.00;95290.38;5006289;28;19920;-48
2023/05/22 05:34:00;;;;;;;;;;;19.00;59.50;;;14.34;100.00;95285.03;5011616;28;19924;-51
2023/05/22 05:36:25;;;;;;;;;;;19.00;59.40;;;14.33;99.01;95285.34;5012125;28;19909;-55
2023/05/22 05:38:52;;;;;;;;;;;19.00;59.20;;;14.24;99.87;95290.56;4998367;28;19913;-51
2023/05/22 05:41:18;;;;;;;;;;;19.00;59.20;;;14.31;99.69;95287.50;5011117;28;19913;-55
2023/05/22 05:43:44;;;;;;;;;;;19.10;59.10;;;14.38;99.73;95290.59;5005853;28;19913;-55
2023/05/22 05:46:10;;;;;;;;;;;19.10;59.10;;;14.40;100.00;95291.09;5008873;28;19909;-53
2023/05/22 05:48:35;;;;;;;;;;;19.20;59.10;;;14.57;100.00;95291.38;5026025;28;20274;-55
2023/05/22 05:51:01;;;;;;;;;;;19.30;59.00;;;14.87;100.00;95291.84;4999678;28;20411;-52
2023/05/22 05:53:27;;;;;;;;;;;19.60;59.00;;;15.19;97.69;95292.81;5011154;28;19909;-51
2023/05/22 05:55:53;;;;;;;;;;;19.90;59.00;;;15.60;95.81;95294.63;5011306;28;19909;-52
2023/05/22 05:58:19;;;;;;;;;;;20.20;58.90;;;15.98;91.73;95287.03;5010089;28;20000;-51
2023/05/22 06:00:45;;;;;;;;;;;20.60;58.80;;;16.35;89.56;95293.91;5000411;28;20009;-51
2023/05/22 06:03:10;;;;;;;;;;;21.00;58.60;;;16.70;86.54;95299.47;5010664;28;19932;-55
2023/05/22 06:05:36;;;;;;;;;;;21.40;58.30;;;16.85;81.01;95299.09;5004029;28;19940;-52
2023/05/22 06:08:04;;;;;;;;;;;21.60;58.00;;;16.99;80.27;95309.75;4993463;28;19956;-55
2023/05/22 06:10:30;;;;;;;;;;;21.70;57.70;;;17.00;78.75;95307.84;5003339;28;19910;-55
2023/05/22 06:12:56;;;;;;;;;;;21.80;57.40;;;17.04;80.49;95312.28;5008731;28;19958;-52
2023/05/22 06:15:22;;;;;;;;;;;21.90;57.20;;;17.14;79.60;95319.28;5007687;28;19995;-54
2023/05/22 06:17:48;;;;;;;;;;;22.00;57.40;;;17.37;79.56;95319.19;5010340;28;19909;-49
2023/05/22 06:20:14;;;;;;;;;;;22.30;56.50;;;17.68;78.22;95314.47;5004219;28;19935;-54
2023/05/22 06:22:40;;;;;;;;;;;22.70;56.30;;;18.05;75.60;95312.31;5014899;28;20372;-48
2023/05/22 06:25:06;;;;;;;;;;;23.00;56.00;;;18.44;75.69;95319.38;5015249;28;19915;-52
2023/05/22 06:27:32;;;;;;;;;;;23.40;55.80;;;18.82;72.36;95313.25;5004047;28;20375;-54
2023/05/22 06:29:59;;;;;;;;;;;23.80;55.50;;;19.13;70.95;95310.25;5015219;28;19956;-56
2023/05/22 06:32:24;;;;;;;;;;;24.20;55.10;;;19.42;68.72;95312.16;5014177;28;19971;-50
2023/05/22 06:34:50;;;;;;;;;;;24.50;54.60;;;19.73;67.58;95311.03;5015079;28;19963;-50
2023/05/22 06:37:16;;;;;;;;;;;24.80;54.30;;;19.86;65.64;95314.59;5012401;28;20342;-55
2023/05/22 06:39:42;;;;;;;;;;;25.20;53.90;;;20.04;65.39;95302.53;5004220;28;19991;-52
2023/05/22 06:42:07;;;;;;;;;;;25.50;53.60;;;20.22;63.29;95310.50;5014722;28;19921;-50
2023/05/22 06:44:33;;;;;;;;;;;25.80;53.20;;;20.46;62.47;95302.44;5013883;28;19909;-51
2023/05/22 06:46:59;;;;;;;;;;;26.10;52.80;;;20.70;62.17;95307.16;5014647;28;19909;-51
2023/05/22 06:49:25;;;;;;;;;;;26.40;52.30;;;20.98;60.78;95312.72;5014133;28;19978;-50
2023/05/22 06:51:50;;;;;;;;;;;26.70;52.10;;;21.25;59.53;95305.84;5014688;28;20307;-49
2023/05/22 06:54:18;;;;;;;;;;;26.90;51.60;;;21.34;58.23;95311.16;5014539;28;19931;-50
2023/05/22 06:56:44;;;;;;;;;;;27.10;51.10;;;21.45;58.27;95298.75;5001033;28;19924;-51
2023/05/22 06:59:11;;;;;;;;;;;27.30;51.10;;;21.87;57.38;95306.59;5004890;28;19959;-49
2023/05/22 07:01:37;;;;;;;;;;;27.40;50.30;;;22.13;56.64;95308.88;4996953;28;19991;-50
2023/05/22 07:04:07;;;;;;;;;;;27.60;50.20;;;22.26;55.69;95303.41;5014466;28;19934;-50
2023/05/22 07:06:37;;;;;;;;;;;27.80;49.70;;;22.53;55.05;95320.78;5014365;28;19909;-51
2023/05/22 07:09:04;;;;;;;;;;;28.00;49.60;;;22.62;53.88;95311.34;5013900;28;20287;-49
2023/05/22 07:11:31;;;;;;;;;;;28.30;49.30;;;22.91;54.03;95317.53;5013977;28;19932;-58
2023/05/22 07:13:56;;;;;;;;;;;28.50;49.10;;;22.98;53.48;95317.75;5013314;28;19909;-51
2023/05/22 07:16:22;;;;;;;;;;;28.70;48.70;;;23.21;53.34;95315.19;5014332;28;19916;-48
2023/05/22 07:18:48;;;;;;;;;;;28.90;48.50;;;23.24;52.01;95316.41;5014274;28;19909;-51
2023/05/22 07:21:14;;;;;;;;;;;29.20;48.00;;;23.61;52.20;95316.88;4998174;28;19917;-56
2023/05/22 07:23:40;;;;;;;;;;;29.30;47.80;;;23.84;51.53;95316.22;5005332;28;19949;-52
2023/05/22 07:26:07;;;;;;;;;;;29.50;47.50;;;23.95;50.37;95318.03;5009468;28;19916;-49
2023/05/22 07:28:32;;;;;;;;;;;29.80;47.20;;;24.14;50.22;95319.22;5010959;28;20363;-52
2023/05/22 07:30:59;;;;;;;;;;;30.00;46.80;;;24.12;49.05;95313.31;5010114;28;19924;-52
2023/05/22 07:33:25;;;;;;;;;;;30.10;46.30;;;24.30;49.37;95313.69;4999365;28;19922;-49
2023/05/22 07:35:51;;;;;;;;;;;30.30;46.20;;;24.27;48.43;95309.75;5007458;28;19999;-53
2023/05/22 07:38:17;;;;;;;;;;;30.40;46.10;;;24.49;48.34;95304.75;4996173;28;20039;-51
2023/05/22 07:40:43;;;;;;;;;;;30.60;45.60;;;24.73;49.25;95304.41;4993919;28;19917;-51
2023/05/22 07:43:08;;;;;;;;;;;30.80;45.50;;;24.89;47.92;95298.84;4993941;28;19916;-52
2023/05/22 07:45:34;;;;;;;;;;;31.00;45.20;;;25.18;48.01;95302.09;4993560;28;19920;-52
2023/05/22 07:48:02;;;;;;;;;;;31.20;45.00;;;25.24;46.50;95304.13;4994235;28;19909;-52
2023/05/22 07:50:29;;;;;;;;;;;31.40;44.70;;;25.32;46.66;95305.00;4997498;28;19916;-50
2023/05/22 07:52:55;;;;;;;;;;;31.50;44.30;;;25.36;46.38;95294.97;5013471;28;19920;-49
2023/05/22 07:55:21;;;;;;;;;;;31.60;44.00;;;25.49;46.63;95299.06;5009291;28;20435;-55
2023/05/22 07:57:47;;;;;;;;;;;31.80;44.00;;;25.65;44.63;95293.44;5002773;28;20008;-54
2023/05/22 08:00:13;;;;;;;;;;;32.00;43.60;;;25.90;45.06;95299.25;5010672;28;19991;-55
2023/05/22 08:02:40;;;;;;;;;;;32.10;43.20;;;25.89;45.61;95296.91;5012499;28;19909;-53
2023/05/22 08:05:07;;;;;;;;;;;32.20;42.90;;;26.26;44.30;95299.69;5013117;28;19978;-50
2023/05/22 08:07:33;;;;;;;;;;;32.30;42.70;;;26.49;44.50;95305.06;5012200;28;19912;-51
2023/05/22 08:10:06;;;;;;;;;;;32.50;42.50;;;26.68;43.38;95298.63;5008740;28;19913;-52
2023/05/22 08:12:32;;;;;;;;;;;32.70;42.40;;;26.76;41.88;95303.00;4993398;28;20394;-51
2023/05/22 08:14:58;;;;;;;;;;;32.90;42.30;;;26.85;42.88;95292.53;5010717;28;19999;-55
2023/05/22 08:17:24;;;;;;;;;;;33.00;41.70;;;27.06;41.86;95293.91;5002228;28;19989;-54
2023/05/22 08:19:49;;;;;;;;;;;33.20;41.50;;;27.37;40.62;95292.63;4997500;28;19955;-52
2023/05/22 08:22:15;;;;;;;;;;;33.40;41.40;;;27.59;41.15;95294.34;5012583;28;19920;-54
2023/05/22 08:24:41;;;;;;;;;;;33.60;41.20;;;27.73;39.18;95295.59;5013182;28;19913;-52
2023/05/22 08:27:06;;;;;;;;;;;33.80;40.90;;;27.62;38.87;95293.56;5011863;28;20067;-57
2023/05/22 08:29:32;;;;;;;;;;;33.90;41.00;;;27.58;39.27;95287.31;4999633;28;19917;-51
2023/05/22 08:34:25;;;;;;;;;;;34.10;40.00;;;27.81;38.95;95281.59;5047962;23;19924;-53
2023/05/22 08:36:51;;;;;;;;;;;34.30;39.70;;;28.21;38.85;95285.31;5031406;28;20000;-56
2023/05/22 08:39:17;;;;;;;;;;;34.40;39.50;;;28.49;38.35;95283.88;5031297;28;19995;-54
2023/05/22 08:41:44;;;;;;;;;;;34.60;39.30;;;28.73;37.41;95291.34;5032357;28;20418;-55
2023/05/22 08:44:12;;;;;;;;;;;34.70;39.00;;;28.79;37.13;95286.25;5030163;28;19909;-56
2023/05/22 08:46:42;;;;;;;;;;;34.90;38.90;;;29.07;36.32;95282.78;5019763;28;20326;-56
2023/05/22 08:49:09;;;;;;;;;;;35.10;38.80;;;29.10;37.42;95287.50;5012569;28;19935;-56
2023/05/22 08:51:45;;;;;;;;;;;35.30;38.90;;;29.10;36.30;95287.50;5017131;28;19909;-55
2023/05/22 08:54:11;;;;;;;;;;;35.50;38.00;;;29.05;35.57;95285.94;5019990;28;20256;-56
2023/05/22 08:56:39;;;;;;;;;;;35.50;37.50;;;29.12;36.49;95285.16;5018106;28;19963;-55
2023/05/22 08:59:06;;;;;;;;;;;35.60;37.50;;;29.12;35.66;95282.41;5024613;28;20363;-55
2023/05/22 09:01:32;;;;;;;;;;;35.80;37.30;;;28.85;36.51;95283.91;5040661;28;19963;-55
2023/05/22 09:04:02;;;;;;;;;;;35.80;37.10;;;29.28;35.80;95282.78;5047304;28;19908;-50
2023/05/22 09:06:28;;;;;;;;;;;35.90;36.90;;;29.46;35.52;95280.03;5018860;28;19980;-50
2023/05/22 09:08:58;;;;;;;;;;;36.10;36.80;;;29.28;35.38;95285.53;5031161;28;20020;-52
2023/05/22 09:11:25;;;;;;;;;;;36.20;36.40;;;29.68;35.66;95289.06;5017729;28;19913;-53
2023/05/22 09:13:51;;;;;;;;;;;36.20;36.30;;;30.10;34.14;95287.34;5026143;28;20383;-56
2023/05/22 09:16:18;;;;;;;;;;;36.40;36.40;;;29.64;34.29;95285.50;5029510;28;19931;-54
2023/05/22 09:18:45;;;;;;;;;;;36.50;36.10;;;29.62;34.67;95274.16;5021232;28;20015;-56
2023/05/22 09:21:13;;;;;;;;;;;36.60;35.90;;;29.73;34.78;95282.38;5046318;28;20005;-56
2023/05/22 09:23:40;;;;;;;;;;;36.70;35.70;;;29.82;34.69;95270.97;5022019;28;19909;-53
2023/05/22 09:26:05;;;;;;;;;;;36.80;35.60;;;30.30;34.79;95276.69;5027413;28;19908;-56
2023/05/22 09:28:36;;;;;;;;;;;37.00;35.60;;;30.78;33.97;95278.06;5021946;28;19943;-53
2023/05/22 09:31:03;;;;;;;;;;;37.10;35.40;;;30.71;32.85;95284.31;5025117;28;19916;-56
2023/05/22 09:33:30;;;;;;;;;;;37.20;35.00;;;30.56;32.11;95275.41;5017509;28;19917;-52
2023/05/22 09:35:58;;;;;;;;;;;37.30;34.70;;;30.25;32.94;95276.34;5025419;28;20331;-57
2023/05/22 09:38:30;;;;;;;;;;;37.40;34.60;;;30.30;33.08;95273.16;5022292;28;19909;-56
2023/05/22 09:40:56;;;;;;;;;;;37.40;34.30;;;30.56;32.23;95285.63;5031616;28;20027;-56
2023/05/22 09:43:26;;;;;;;;;;;37.50;34.30;;;30.74;32.25;95277.25;5018817;28;20418;-52
2023/05/22 09:45:59;;;;;;;;;;;37.50;34.10;;;30.94;32.55;95275.59;5033406;28;19936;-56
2023/05/22 09:48:25;;;;;;;;;;;37.70;34.10;;;31.33;31.93;95272.53;5033335;28;19975;-53
2023/05/22 09:50:54;;;;;;;;;;;37.90;34.00;;;31.56;32.16;95271.16;5030776;28;20371;-56
2023/05/22 09:53:29;;;;;;;;;;;38.10;33.80;;;32.09;31.07;95271.78;5018025;28;19917;-56
2023/05/22 09:55:58;;;;;;;;;;;38.20;33.60;;;32.27;29.49;95275.13;5027741;28;19999;-55
2023/05/22 09:58:29;;;;;;;;;;;38.40;33.50;;;32.44;29.42;95265.88;5035096;28;20294;-56
2023/05/22 10:00:56;;;;;;;;;;;38.60;33.30;;;32.23;29.91;95266.13;5040514;28;19913;-52
2023/05/22 10:03:25;;;;;;;;;;;38.70;33.00;;;31.95;29.19;95272.75;5042550;28;19916;-53
2023/05/22 10:05:55;;;;;;;;;;;38.90;32.70;;;32.06;29.13;95265.16;5026047;28;20379;-51
2023/05/22 10:08:27;;;;;;;;;;;38.90;32.40;;;31.96;29.70;95268.78;5029893;28;19909;-54
2023/05/22 10:10:52;;;;;;;;;;;38.90;31.80;;;32.10;29.88;95273.38;5042068;28;20007;-50
2023/05/22 10:13:22;;;;;;;;;;;38.80;31.60;;;32.23;29.31;95257.84;5050282;28;20000;-54
2023/05/22 10:15:50;;;;;;;;;;;38.90;31.70;;;32.08;29.27;95253.72;5034297;28;19912;-53
2023/05/22 10:18:16;;;;;;;;;;;38.90;31.70;;;32.30;28.84;95260.50;5034949;28;19908;-56
2023/05/22 10:20:43;;;;;;;;;;;39.00;32.20;;;32.12;29.00;95255.22;5033707;28;19955;-55
2023/05/22 10:23:10;;;;;;;;;;;39.10;31.40;;;32.10;29.57;95254.09;5021244;28;19912;-56
2023/05/22 10:25:40;;;;;;;;;;;39.20;31.40;;;32.55;29.22;95248.41;5046731;28;19924;-54
2023/05/22 10:28:08;;;;;;;;;;;39.30;31.40;;;32.69;28.88;95251.75;5043294;28;19958;-58
2023/05/22 10:31:06;;;;;;;;;;;39.50;31.40;;;33.07;28.58;95245.31;5050142;28;19909;-52
2023/05/22 10:33:43;;;;;;;;;;;39.80;31.30;;;33.21;28.29;95242.28;5021918;28;19920;-56
2023/05/22 10:37:17;;;;;;;;;;;40.00;30.80;;;33.15;27.39;95238.44;5049410;28;20283;-56
2023/05/22 10:39:59;;;;;;;;;;;40.10;30.40;;;33.49;27.48;95240.25;4973086;28;19916;-56
2023/05/22 10:42:30;;;;;;;;;;;40.30;30.30;;;33.69;27.74;95235.56;5008822;28;19975;-56
2023/05/22 10:44:56;;;;;;;;;;;40.30;30.30;;;33.36;27.61;95237.31;5018814;28;19913;-55
2023/05/22 10:47:21;;;;;;;;;;;40.50;30.00;;;32.84;28.48;95234.97;5030674;28;20290;-52
2023/05/22 10:49:49;;;;;;;;;;;40.40;29.90;;;32.77;28.95;95229.59;5017050;28;19909;-54
2023/05/22 10:52:17;;;;;;;;;;;40.40;29.70;;;33.07;28.48;95228.75;5028440;28;19931;-54
2023/05/22 10:54:45;;;;;;;;;;;40.30;29.60;;;33.21;27.92;95222.97;5021144;28;19909;-55
2023/05/22 10:57:17;;;;;;;;;;;40.30;30.10;;;33.18;28.14;95221.84;5043380;28;19913;-50
2023/05/22 10:59:46;;;;;;;;;;;40.40;29.70;;;33.46;28.94;95214.25;5021765;28;20019;-51
2023/05/22 11:02:20;;;;;;;;;;;40.50;29.60;;;33.72;27.81;95218.16;5020025;28;20260;-51
2023/05/22 11:04:46;;;;;;;;;;;40.70;29.70;;;33.92;27.57;95223.69;5020530;28;19916;-54
2023/05/22 11:07:13;;;;;;;;;;;40.90;29.70;;;34.34;26.80;95214.94;5033127;28;19909;-57
2023/05/22 11:09:48;;;;;;;;;;;41.10;29.60;;;34.49;26.42;95213.44;5019624;28;19916;-55
2023/05/22 11:12:20;;;;;;;;;;;41.40;29.60;;;34.95;26.31;95214.38;5027629;28;20333;-55
2023/05/22 11:15:08;;;;;;;;;;;41.70;29.50;;;35.22;25.03;95211.34;5032860;28;20286;-57
2023/05/22 11:17:50;;;;;;;;;;;42.00;29.30;;;34.96;25.85;95202.88;5033897;28;19988;-55
2023/05/22 11:20:24;;;;;;;;;;;42.30;29.10;;;35.05;25.44;95204.28;5021005;28;20391;-52
2023/05/22 11:23:04;;;;;;;;;;;42.40;29.00;;;35.37;26.41;95200.69;5022000;28;20237;-53